TNCMGCTS

Guest
Details From TNCM - St Maarten - Princess Juliana Intl
To GCTS - Tenerife Sur
Flight Number -
Tags Generated
Created
Modified
Stats Distance 2,625 nm / 4,862 km
Max Altitude 0 ft / 0 m
Waypoints 3
Social Downloads 2
Likes 0
Share VATSIM

Download

Looking for another format? Having issues loading an existing format? Contact us
Advertisement - Login to hide

Notes

Generated

Route

TNCM TFS GCTS

ID Type Via Altitude Latitude Longitude Leg Dist Tot Dist Heading (true) Name
O TNCM APT - 0 ft / 0 m 18.03937˚ -63.11961˚ - 0 nm - -
TFS VOR - 0 ft / 0 m 28.00245˚ -16.68793˚ 2619 nm 2619 nm 68° / 87° TENERIFE SUR VOR-DME
O GCTS APT - 0 ft / 0 m 28.03920˚ -16.58764˚ 5 nm 2625 nm 67° / 67° -

Altitude Profile

Advertisement - Login to hide

Weather


0- 5 10 15 20 25 30 35+ Temperature / ° C

Clouds and Precipitation
Forecast for 2018-05-23 06:00 UTC. Updated 2 hours ago

Ground ~20,000 ft ~40,000 ft Winds

TNCM

Details ICAO TNCM (SXM)
Name St Maarten - Princess Juliana Intl
Region Caribbean Netherlands, Aruba, Curaçao, Sint Maarten
Timezone Unknown (UTC+0.0)
Stats Elevation 12 ft / 4 m (AMSL)
Location 18.040889° -63.108974°
Runways 1
Magnetic Variation 14.337° W

METAR

TNCM 230700Z 08010G20KT 060V120 9999 SCT020 26/21 Q1017 A3004

Decode

TAF

TAF TNCM 230526Z 2306/2406 08010KT P6SM SCT020 FM231300 11013KT P6SM SCT025

Decode

Departure Runways

ID Width Length Bearing (true) Bearing (mag) Surface Threshold Offset Overrun Length
10 148 ft / 45 m 7,464 ft / 2,275 m 81.43° 95.77° Asphalt 0 ft / 0 m 151 ft / 46 m
28 148 ft / 45 m 7,464 ft / 2,275 m 261.44° 275.78° Asphalt 397 ft / 121 m 0 ft / 0 m

GCTS

Details ICAO GCTS (TFS)
Name Tenerife Sur
Region Canary Islands
Timezone Atlantic/Canary (UTC+1.0)
Stats Elevation 209 ft / 64 m (AMSL)
Location 28.044475° -16.572488°
Runways 1
Magnetic Variation 5.066° W

METAR

GCTS 230730Z 06006KT 9999 SCT018 18/14 Q1018 NOSIG

Decode

TAF

TAF GCTS 230200Z 2303/2403 VRB04KT 9999 SCT030 TX24/2314Z TN16/2305Z BECMG 2309/2311 16010KT PROB30 TEMPO 2303/2309 DZRA BECMG 2317/2319 09009KT

Decode

Destination Runways

ID Width Length Bearing (true) Bearing (mag) Surface Threshold Offset Overrun Length
08 148 ft / 45 m 10,489 ft / 3,197 m 68.47° 73.54° Asphalt 0 ft / 0 m 0 ft / 0 m
26 148 ft / 45 m 10,489 ft / 3,197 m 248.49° 253.56° Asphalt 0 ft / 0 m 0 ft / 0 m

Approach Navaids

Runway Type Ident Frequency Range Bearing (true) Bearing (mag) Slope Elevation
08 Localiser TRS 109.70 MHz 18 nm / 33 km 68.49° 73.56° - 187 ft / 57 m (AMSL)
08 Glidescope TRS 109.70 MHz 10 nm / 19 km 68.48° 73.55° 3.00° 209 ft / 64 m (AMSL)
26 Localiser ISUR 110.90 MHz 18 nm / 33 km 248.52° 253.58° - 209 ft / 64 m (AMSL)
26 Glidescope ISUR 110.90 MHz 10 nm / 19 km 248.48° 253.55° 3.00° 236 ft / 72 m (AMSL)
26 DME ISUR 110.90 MHz 18 nm / 33 km - - - 236 ft / 72 m (AMSL)

Popular Alternatives